Hotchkiss, CO (81419)

8:18 PM MDT on May 03, 2015 (GMT -0600)
Rogers Mesa CO | | Change Station
CLOSE
Current Station
Personal Weather Station
Location: Rogers Mesa, CO
Elevation: 5794 ft
Nearby Weather Stations

Elev 5794 ft 38.81 °N, 107.77 °W | Updated 1 second ago

Overcast
Overcast
59.1 °F
Feels Like 59.1 °F
N
6.1
Wind Variable Wind from ESE
Gusts 6.1 mph

Today
High -- | Low -- °F
--% Chance of Precip.
Yesterday
High -- | Low -- °F
Precip. -- in
6:11 AM 8:05 PM
Full, 100% visible
Pressure 30.02 in
Visibility 7.0 miles
Clouds Overcast 7000 ft
Dew Point 43 °F
Humidity 54%
Rainfall 0.00 in
Snow Depth Not available.
UV 0 out of 12
Pollen 9.50 out of 12
Air Quality Not available.
Flu Activity Sporadic
METAR KAJZ 040215Z AUTO 29006KT 7SM OVC070 15/10 A3002 RMK AO2 T01500100 PWINO

More Conditions Fewer Conditions

Pressure 30.02 in
Visibility 7.0 miles
Clouds Overcast 7000 ft
Dew Point 43 °F
Humidity 54%
Rainfall 0.00 in
Snow Depth Not available.
UV 0 out of 12
Pollen 9.50 out of 12
Air Quality Not available.
Flu Activity Sporadic
METAR KAJZ 040215Z AUTO 29006KT 7SM OVC070 15/10 A3002 RMK AO2 T01500100 PWINO

More Conditions Fewer Conditions

Nepal has a long way to go to dig out and rebuild from a devastating earthquake. We have teamed up with several charities and organizations to make contributing to the relief effort as easy as possible.
How you can help: Portlight Strategies | Red Cross

10-Day Weather Forecast

Almanac

Astronomy

May. 03, 2015 Rise Set
Actual Time
Civil Twilight
Nautical Twilight
Astronomical Twilight
Moon
Length of Visible Light
Length of Day
Tomorrow will be .
, % of the Moon is Illuminated

Today's Extremes

State Highs State Lows

Community

WunderPhotos

Upload Photos

1,818,464 photos uploaded!

WunderBlogs® & News

Nearby

Air Quality

  Air Quality AQ Index Pollutant
Not available.

Snow Depth

Station Depth Elevation

Earthquake Activity

City Distance Mag. Time & Date
Minimum magnitude displayed is 2.5.

Coastal Water Temperatures

Place Temperature

Stations

Nearby Weather Stations

Station Location Temp. Windchill Dew Point Humidity Wind Precip. Elev Updated Type